createdAt,value
2019-04-16T00:02:00.407Z,48.07
2019-04-16T00:04:46.789Z,49.03
2019-04-16T00:07:33.223Z,48.75
2019-04-16T00:10:19.911Z,48.75
2019-04-16T00:12:54.544Z,49.07
2019-04-16T00:15:22.346Z,48.85
2019-04-16T00:17:49.996Z,48.85
2019-04-16T00:20:37.966Z,48.97
2019-04-16T00:25:44.721Z,48.71
2019-04-16T00:28:31.418Z,48.71
2019-04-16T00:31:17.929Z,49.24
2019-04-16T00:34:04.367Z,49.24
2019-04-16T00:36:50.752Z,49.32
2019-04-16T00:39:37.454Z,49.34
2019-04-16T00:42:23.801Z,48.95
2019-04-16T00:44:51.517Z,48.95
2019-04-16T00:47:19.177Z,49.37
2019-04-16T00:50:05.598Z,49.38
2019-04-16T00:52:51.995Z,49.58
2019-04-16T00:58:32.931Z,49.43
2019-04-16T01:03:34.235Z,49.57
2019-04-16T01:06:06.639Z,49.61
2019-04-16T01:08:31.220Z,49.78
2019-04-16T01:10:58.851Z,49.30
2019-04-16T01:13:45.178Z,49.30
2019-04-16T01:16:32.923Z,49.84
2019-04-16T01:19:19.560Z,49.84
2019-04-16T01:21:47.278Z,49.54
2019-04-16T01:24:33.601Z,49.51
2019-04-16T01:27:20.030Z,49.58
2019-04-16T01:30:06.833Z,49.45
2019-04-16T01:32:53.171Z,49.35
2019-04-16T01:35:39.586Z,48.80
2019-04-16T01:41:43.227Z,49.35
2019-04-16T01:44:19.447Z,48.74
2019-04-16T01:47:05.881Z,49.25
2019-04-16T01:52:40.302Z,49.48
2019-04-16T01:58:13.116Z,48.89
2019-04-16T02:00:40.756Z,48.89
2019-04-16T02:03:29.141Z,49.52
2019-04-16T02:06:15.479Z,49.44
2019-04-16T02:09:03.266Z,49.49
2019-04-16T02:11:33.260Z,49.49
2019-04-16T02:14:01.029Z,49.25
2019-04-16T02:16:47.705Z,49.31
2019-04-16T02:19:34.038Z,49.78
2019-04-16T02:22:20.673Z,49.90
2019-04-16T02:24:48.670Z,49.90
2019-04-16T02:27:36.666Z,49.39
2019-04-16T02:30:23.116Z,50.04
2019-04-16T02:32:50.724Z,49.95
2019-04-16T02:35:38.798Z,49.71
2019-04-16T02:38:11.034Z,49.71
2019-04-16T02:40:35.821Z,49.89
2019-04-16T02:43:07.456Z,49.78
2019-04-16T02:45:58.344Z,50.47
2019-04-16T02:51:31.276Z,50.25
2019-04-16T02:56:57.993Z,50.20
2019-04-16T03:02:23.088Z,50.44
2019-04-16T03:08:05.008Z,51.44
2019-04-16T03:10:32.533Z,51.78
2019-04-16T03:13:23.032Z,51.47
2019-04-16T03:19:12.018Z,52.21
2019-04-16T03:24:47.455Z,52.52
2019-04-16T03:27:33.908Z,52.16
2019-04-16T03:30:03.364Z,52.16
2019-04-16T03:32:50.186Z,52.65
2019-04-16T03:35:17.965Z,52.65
2019-04-16T03:38:05.402Z,52.48
2019-04-16T03:40:34.075Z,52.49
2019-04-16T03:45:40.469Z,52.25
2019-04-16T03:48:26.239Z,52.35
2019-04-16T03:51:14.922Z,52.31
2019-04-16T03:54:04.993Z,52.23
2019-04-16T03:56:52.589Z,52.55
2019-04-16T03:59:40.024Z,52.75
2019-04-16T04:02:08.422Z,52.40
2019-04-16T04:04:57.567Z,52.57
2019-04-16T04:07:24.324Z,52.57
2019-04-16T04:09:55.199Z,52.68
2019-04-16T04:12:42.585Z,52.37
2019-04-16T04:15:11.368Z,53.20
2019-04-16T04:20:44.266Z,52.92
2019-04-16T04:23:45.316Z,53.05
2019-04-16T04:26:00.592Z,53.13
2019-04-16T04:28:48.657Z,53.04
2019-04-16T04:34:21.524Z,53.49
2019-04-16T04:36:49.298Z,53.50
2019-04-16T04:39:35.717Z,53.50
2019-04-16T04:42:03.354Z,53.13
2019-04-16T04:44:33.607Z,53.11
2019-04-16T04:47:20.146Z,53.03
2019-04-16T04:52:40.194Z,52.68
2019-04-16T04:55:07.959Z,52.85
2019-04-16T04:57:54.341Z,52.27
2019-04-16T05:00:22.252Z,52.27
2019-04-16T05:03:08.733Z,52.06
2019-04-16T05:05:56.057Z,52.20
2019-04-16T05:08:43.158Z,52.28
2019-04-16T05:11:29.523Z,52.44
2019-04-16T05:14:15.974Z,51.67
2019-04-16T05:17:03.535Z,51.67
2019-04-16T05:19:52.373Z,51.94
2019-04-16T05:22:38.758Z,51.88
2019-04-16T05:25:25.179Z,51.53
2019-04-16T05:30:25.387Z,51.58
2019-04-16T05:32:53.363Z,51.24
2019-04-16T05:35:21.127Z,51.24
2019-04-16T05:37:51.490Z,51.33
2019-04-16T05:40:36.990Z,51.27
2019-04-16T05:43:04.699Z,51.20
2019-04-16T05:45:34.468Z,51.20
2019-04-16T05:48:21.867Z,50.38
2019-04-16T05:50:49.789Z,50.38
2019-04-16T05:53:37.342Z,50.75
2019-04-16T05:56:24.991Z,50.75
2019-04-16T05:59:12.290Z,50.09
2019-04-16T06:02:11.177Z,49.87
2019-04-16T06:04:28.788Z,49.71
2019-04-16T06:06:56.543Z,49.63
2019-04-16T06:09:24.237Z,49.56
2019-04-16T06:12:10.623Z,49.49
2019-04-16T06:14:54.010Z,48.92
2019-04-16T06:17:39.997Z,49.16
2019-04-16T06:20:29.433Z,49.16
2019-04-16T06:23:15.889Z,48.91
2019-04-16T06:26:02.285Z,48.44
2019-04-16T06:29:00.950Z,48.44
2019-04-16T06:31:51.036Z,48.51
2019-04-16T06:34:25.523Z,47.98
2019-04-16T06:40:32.593Z,47.78
2019-04-16T06:43:05.156Z,47.57
2019-04-16T06:45:51.606Z,46.98
2019-04-16T06:48:38.014Z,46.98
2019-04-16T06:51:24.706Z,46.95
2019-04-16T06:54:11.543Z,46.66
2019-04-16T06:56:57.148Z,46.38
2019-04-16T06:59:33.838Z,46.42
2019-04-16T07:02:32.544Z,46.42
2019-04-16T07:05:22.223Z,45.96
2019-04-16T07:08:09.199Z,46.17
2019-04-16T07:10:44.906Z,45.32
2019-04-16T07:13:21.468Z,45.21
2019-04-16T07:15:49.360Z,45.21
2019-04-16T07:18:20.403Z,44.97
2019-04-16T07:20:48.594Z,44.79
2019-04-16T07:23:16.213Z,44.27
2019-04-16T07:26:03.894Z,44.27
2019-04-16T07:31:52.301Z,43.76
2019-04-16T07:34:37.159Z,43.23
2019-04-16T07:37:24.003Z,43.23
2019-04-16T07:40:10.656Z,43.06
2019-04-16T07:42:58.966Z,43.06
2019-04-16T07:45:41.758Z,42.55
2019-04-16T07:48:28.497Z,42.55
2019-04-16T07:51:27.019Z,42.51
2019-04-16T07:54:06.506Z,42.51
2019-04-16T07:59:32.358Z,41.98
2019-04-16T08:02:17.690Z,41.98
2019-04-16T08:07:43.275Z,41.52
2019-04-16T08:10:29.683Z,41.52
2019-04-16T08:16:00.402Z,41.07
2019-04-16T08:18:28.056Z,41.10
2019-04-16T08:21:14.479Z,40.43
2019-04-16T08:24:00.906Z,40.56
2019-04-16T08:26:47.267Z,40.56
2019-04-16T08:32:25.922Z,39.91
2019-04-16T08:34:54.442Z,39.81
2019-04-16T08:37:53.306Z,39.81
2019-04-16T08:40:15.229Z,39.69
2019-04-16T08:43:01.704Z,39.54
2019-04-16T08:45:29.286Z,39.41
2019-04-16T08:48:02.365Z,39.30
2019-04-16T08:50:30.099Z,39.20
2019-04-16T08:53:00.150Z,39.06
2019-04-16T08:55:46.611Z,38.92
2019-04-16T08:58:14.258Z,39.13
2019-04-16T09:03:35.232Z,38.35
2019-04-16T09:06:04.322Z,38.23
2019-04-16T09:08:53.209Z,38.23
2019-04-16T09:11:38.983Z,38.11
2019-04-16T09:14:25.899Z,37.92
2019-04-16T09:17:13.412Z,37.66
2019-04-16T09:22:49.191Z,37.04
2019-04-16T09:25:34.349Z,36.66
2019-04-16T09:28:25.857Z,36.29
2019-04-16T09:33:58.983Z,35.74
2019-04-16T09:36:46.598Z,35.59
2019-04-16T09:44:53.920Z,34.71
2019-04-16T09:47:23.047Z,34.24
2019-04-16T09:49:50.757Z,34.24
2019-04-16T09:52:37.213Z,33.50
2019-04-16T09:55:23.613Z,33.11
2019-04-16T09:57:54.301Z,32.69
2019-04-16T10:00:28.869Z,32.33
2019-04-16T10:02:58.500Z,32.21
2019-04-16T10:05:29.682Z,32.01
2019-04-16T10:07:57.041Z,31.82
2019-04-16T10:10:28.299Z,31.47
2019-04-16T10:12:54.432Z,31.17
2019-04-16T10:15:22.073Z,31.17
2019-04-16T10:17:49.818Z,30.81
2019-04-16T10:20:17.867Z,30.56
2019-04-16T10:22:45.484Z,30.18
2019-04-16T10:25:22.271Z,30.18
2019-04-16T10:27:58.509Z,29.84
2019-04-16T10:30:32.726Z,29.64
2019-04-16T10:33:00.624Z,28.97
2019-04-16T10:35:28.681Z,28.97
2019-04-16T10:37:56.280Z,28.91
2019-04-16T10:40:44.549Z,28.98
2019-04-16T10:43:44.790Z,28.91
2019-04-16T10:46:35.229Z,28.57
2019-04-16T10:49:28.336Z,28.23
2019-04-16T10:52:24.806Z,28.23
2019-04-16T10:55:00.550Z,27.79
2019-04-16T10:57:46.423Z,27.43
2019-04-16T11:00:30.654Z,27.29
2019-04-16T11:03:06.001Z,27.01
2019-04-16T11:06:02.326Z,26.89
2019-04-16T11:08:30.282Z,26.37
2019-04-16T11:11:00.212Z,25.91
2019-04-16T11:13:33.688Z,25.60
2019-04-16T11:16:07.826Z,25.46
2019-04-16T11:18:35.482Z,25.19
2019-04-16T11:21:03.750Z,24.75
2019-04-16T11:23:31.770Z,24.61
2019-04-16T11:25:59.331Z,24.19
2019-04-16T11:28:26.993Z,24.00
2019-04-16T11:30:56.851Z,23.92
2019-04-16T11:33:27.399Z,23.54
2019-04-16T11:35:59.832Z,23.48
2019-04-16T11:38:27.715Z,23.45
2019-04-16T11:40:55.349Z,23.22
2019-04-16T11:43:23.086Z,23.08
2019-04-16T11:45:51.102Z,22.96
2019-04-16T11:48:18.705Z,22.76
2019-04-16T11:50:46.458Z,22.47
2019-04-16T11:53:14.562Z,22.29
2019-04-16T11:55:42.273Z,22.12
2019-04-16T11:58:24.514Z,22.25
2019-04-16T12:00:56.653Z,22.10
2019-04-16T12:03:48.912Z,21.84
2019-04-16T12:06:41.219Z,21.84
2019-04-16T12:09:24.705Z,21.93
2019-04-16T12:11:59.088Z,21.70
2019-04-16T12:14:42.036Z,20.87
2019-04-16T12:17:31.369Z,20.87
2019-04-16T12:20:19.407Z,21.14
2019-04-16T12:23:18.841Z,21.11
2019-04-16T12:26:09.815Z,20.97
2019-04-16T12:28:55.349Z,21.05
2019-04-16T12:32:03.568Z,20.78
2019-04-16T12:34:46.403Z,21.01
2019-04-16T12:37:46.595Z,20.80
2019-04-16T12:40:24.412Z,20.87
2019-04-16T12:43:09.096Z,20.85
2019-04-16T12:45:43.780Z,20.74
2019-04-16T12:48:19.269Z,20.25
2019-04-16T12:51:02.246Z,20.40
2019-04-16T12:53:46.262Z,21.04
2019-04-16T12:56:46.855Z,21.04
2019-04-16T12:59:24.459Z,20.48
2019-04-16T13:02:02.695Z,20.29
2019-04-16T13:04:49.495Z,20.18
2019-04-16T13:07:34.401Z,20.27
2019-04-16T13:10:38.563Z,20.29
2019-04-16T13:13:26.600Z,20.59
2019-04-16T13:16:18.824Z,21.62
2019-04-16T13:19:06.576Z,22.00
2019-04-16T13:21:39.964Z,22.00
2019-04-16T13:24:35.966Z,22.37
2019-04-16T13:27:28.238Z,23.14
2019-04-16T13:30:01.241Z,21.97
2019-04-16T13:32:27.777Z,21.97
2019-04-16T13:34:57.992Z,22.51
2019-04-16T13:37:24.342Z,22.23
2019-04-16T13:40:02.401Z,21.85
2019-04-16T13:42:32.931Z,21.36
2019-04-16T13:45:16.652Z,20.96
2019-04-16T13:47:46.140Z,20.10
2019-04-16T13:50:41.946Z,20.96
2019-04-16T13:53:29.079Z,20.96
2019-04-16T13:56:18.512Z,21.06
2019-04-16T13:59:09.375Z,21.83
2019-04-16T14:01:46.061Z,22.72
2019-04-16T14:04:14.647Z,23.38
2019-04-16T14:06:45.998Z,23.33
2019-04-16T14:09:12.344Z,22.89
2019-04-16T14:11:40.035Z,22.89
2019-04-16T14:14:08.485Z,23.16
2019-04-16T14:16:36.569Z,23.18
2019-04-16T14:19:06.771Z,23.01
2019-04-16T14:21:41.759Z,22.85
2019-04-16T14:24:11.903Z,22.62
2019-04-16T14:26:43.416Z,22.62
2019-04-16T14:29:11.143Z,22.72
2019-04-16T14:31:39.080Z,22.81
2019-04-16T14:34:16.278Z,22.82
2019-04-16T14:36:43.936Z,22.82
2019-04-16T14:39:22.249Z,22.96
2019-04-16T14:41:56.015Z,22.98
2019-04-16T14:44:20.142Z,22.90
2019-04-16T14:46:49.048Z,22.67
2019-04-16T14:49:18.362Z,22.67
2019-04-16T14:51:46.383Z,22.67
2019-04-16T14:54:25.355Z,22.58
2019-04-16T14:56:58.417Z,22.43
2019-04-16T14:59:47.635Z,21.98
2019-04-16T15:02:30.361Z,21.62
2019-04-16T15:05:15.566Z,21.23
2019-04-16T15:07:45.600Z,21.47
2019-04-16T15:10:47.225Z,21.39
2019-04-16T15:13:49.770Z,21.54
2019-04-16T15:16:38.934Z,21.54
2019-04-16T15:19:24.050Z,21.90
2019-04-16T15:22:19.606Z,22.12
2019-04-16T15:25:09.130Z,22.30
2019-04-16T15:27:55.942Z,22.06
2019-04-16T15:30:51.519Z,22.16
2019-04-16T15:33:23.092Z,22.16
2019-04-16T15:36:01.795Z,22.60
2019-04-16T15:38:54.159Z,23.13
2019-04-16T15:41:30.888Z,23.96
2019-04-16T15:44:09.891Z,23.96
2019-04-16T15:47:15.051Z,24.54
2019-04-16T15:50:13.397Z,24.09
2019-04-16T15:52:48.122Z,24.09
2019-04-16T15:55:37.394Z,24.26
2019-04-16T15:58:32.517Z,24.81
2019-04-16T16:01:18.031Z,25.32
2019-04-16T16:04:09.621Z,25.82
2019-04-16T16:07:02.135Z,26.23
2019-04-16T16:09:41.055Z,26.56
2019-04-16T16:12:11.033Z,26.81
2019-04-16T16:14:39.176Z,27.05
2019-04-16T16:17:07.182Z,27.69
2019-04-16T16:19:37.694Z,27.69
2019-04-16T16:22:11.916Z,28.05
2019-04-16T16:24:41.945Z,27.46
2019-04-16T16:27:06.045Z,28.05
2019-04-16T16:29:33.820Z,27.52
2019-04-16T16:32:06.295Z,27.52
2019-04-16T16:34:31.396Z,28.00
2019-04-16T16:37:02.624Z,28.26
2019-04-16T16:39:34.669Z,28.26
2019-04-16T16:42:02.344Z,28.36
2019-04-16T16:44:30.211Z,28.09
2019-04-16T16:47:16.707Z,28.09
2019-04-16T16:49:44.785Z,28.49
2019-04-16T16:52:30.984Z,28.72
2019-04-16T16:55:00.878Z,28.72
2019-04-16T16:57:42.743Z,28.62
2019-04-16T17:00:35.723Z,29.08
2019-04-16T17:03:13.525Z,29.08
2019-04-16T17:05:42.149Z,28.95
2019-04-16T17:08:09.869Z,29.09
2019-04-16T17:10:37.795Z,29.31
2019-04-16T17:13:05.695Z,29.23
2019-04-16T17:15:33.401Z,29.23
2019-04-16T17:18:01.149Z,29.89
2019-04-16T17:20:30.042Z,29.89
2019-04-16T17:22:57.642Z,29.66
2019-04-16T17:25:36.096Z,29.77
2019-04-16T17:27:57.545Z,29.85
2019-04-16T17:30:26.578Z,29.97
2019-04-16T17:32:54.539Z,30.09
2019-04-16T17:35:22.487Z,30.20
2019-04-16T17:37:50.138Z,30.31
2019-04-16T17:40:51.138Z,30.76
2019-04-16T17:43:33.431Z,30.76
2019-04-16T17:46:24.532Z,30.63
2019-04-16T17:49:11.625Z,30.79
2019-04-16T17:51:58.313Z,31.33
2019-04-16T17:54:46.354Z,31.13
2019-04-16T17:57:45.699Z,31.13
2019-04-16T18:00:38.421Z,31.34
2019-04-16T18:03:27.906Z,32.07
2019-04-16T18:06:17.221Z,32.07
2019-04-16T18:09:12.720Z,31.86
2019-04-16T18:11:52.823Z,32.23
2019-04-16T18:14:48.494Z,32.69
2019-04-16T18:17:46.419Z,32.69
2019-04-16T18:20:24.295Z,32.67
2019-04-16T18:23:19.097Z,33.07
2019-04-16T18:26:03.413Z,33.07
2019-04-16T18:28:37.853Z,33.38
2019-04-16T18:31:14.539Z,33.38
2019-04-16T18:33:56.079Z,33.63
2019-04-16T18:36:45.624Z,33.80
2019-04-16T18:39:37.513Z,33.96
2019-04-16T18:42:07.734Z,34.13
2019-04-16T18:44:56.116Z,34.32
2019-04-16T18:47:42.259Z,34.73
2019-04-16T18:50:35.669Z,34.73
2019-04-16T18:56:00.190Z,35.27
2019-04-16T18:58:27.896Z,35.42
2019-04-16T19:01:24.662Z,35.62
2019-04-16T19:04:21.406Z,35.82
2019-04-16T19:07:09.647Z,35.93
2019-04-16T19:12:18.089Z,36.68
2019-04-16T19:17:55.166Z,36.78
2019-04-16T19:29:14.743Z,37.83
2019-04-16T19:31:57.559Z,37.88
2019-04-16T19:39:47.925Z,38.49
2019-04-16T19:42:25.766Z,38.54
2019-04-16T19:44:53.906Z,38.62
2019-04-16T19:47:40.718Z,38.86
2019-04-16T19:50:10.343Z,38.86
2019-04-16T19:52:38.439Z,39.12
2019-04-16T19:55:06.312Z,39.17
2019-04-16T19:57:34.237Z,39.19
2019-04-16T20:00:04.210Z,39.20
2019-04-16T20:02:51.548Z,39.40
2019-04-16T20:05:38.313Z,39.40
2019-04-16T20:08:39.788Z,39.43
2019-04-16T20:11:08.110Z,39.49
2019-04-16T20:13:54.543Z,39.71
2019-04-16T20:16:22.275Z,39.71
2019-04-16T20:21:38.311Z,39.95
2019-04-16T20:24:27.193Z,40.03
2019-04-16T20:26:55.073Z,40.19
2019-04-16T20:29:58.390Z,40.23
2019-04-16T20:32:34.299Z,40.64
2019-04-16T20:35:19.210Z,40.64
2019-04-16T20:37:53.094Z,40.92
2019-04-16T20:40:38.389Z,40.95
2019-04-16T20:43:06.152Z,41.58
2019-04-16T20:45:55.141Z,41.60
2019-04-16T20:48:44.710Z,41.76
2019-04-16T20:57:25.327Z,42.08
2019-04-16T21:02:43.994Z,42.59
2019-04-16T21:08:24.409Z,42.62
2019-04-16T21:10:51.008Z,42.64
2019-04-16T21:13:37.409Z,42.64
2019-04-16T21:19:28.269Z,42.61
2019-04-16T21:21:45.227Z,42.61
2019-04-16T21:24:31.677Z,42.77
2019-04-16T21:26:59.312Z,42.80
2019-04-16T21:29:45.762Z,42.69
2019-04-16T21:32:32.154Z,42.83
2019-04-16T21:35:18.615Z,42.81
2019-04-16T21:38:19.010Z,42.70
2019-04-16T21:40:56.424Z,42.70
2019-04-16T21:43:28.605Z,43.09
2019-04-16T21:46:20.204Z,43.09
2019-04-16T21:48:46.993Z,43.18
2019-04-16T21:51:33.455Z,43.26
2019-04-16T21:54:01.424Z,43.28
2019-04-16T21:57:01.751Z,43.28
2019-04-16T21:59:21.854Z,43.42
2019-04-16T22:01:52.355Z,43.43
2019-04-16T22:04:22.076Z,43.41
2019-04-16T22:07:10.182Z,43.85
2019-04-16T22:09:52.559Z,43.85
2019-04-16T22:12:26.262Z,44.08
2019-04-16T22:15:12.715Z,44.14
2019-04-16T22:17:59.149Z,44.14
2019-04-16T22:23:00.743Z,44.26
2019-04-16T22:25:29.817Z,44.05
2019-04-16T22:27:57.569Z,44.05
2019-04-16T22:30:43.933Z,44.30
2019-04-16T22:33:30.390Z,44.19
2019-04-16T22:35:58.156Z,44.19
2019-04-16T22:38:44.623Z,45.07
2019-04-16T22:41:31.014Z,45.35
2019-04-16T22:44:17.744Z,45.35
2019-04-16T22:47:04.474Z,46.46
2019-04-16T22:49:56.721Z,46.07
2019-04-16T22:52:21.910Z,46.07
2019-04-16T22:54:52.345Z,46.46
2019-04-16T22:57:37.664Z,46.37
2019-04-16T23:02:55.663Z,45.93
2019-04-16T23:05:23.427Z,45.93
2019-04-16T23:07:51.199Z,46.03
2019-04-16T23:10:37.927Z,46.11
2019-04-16T23:13:24.377Z,46.23
2019-04-16T23:16:11.150Z,46.23
2019-04-16T23:18:57.540Z,46.70
2019-04-16T23:21:43.993Z,46.70
2019-04-16T23:43:53.497Z,47.05
2019-04-16T23:46:53.191Z,47.04
2019-04-16T23:52:01.586Z,47.22
2019-04-16T23:54:46.487Z,46.70
2019-04-16T23:57:35.854Z,46.70
